sensor_id;sensor_type;location;lat;lon;timestamp;pressure;altitude;pressure_sealevel;temperature;humidity
43878;BME280;29815;48.184;11.268;2023-03-13T00:01:41;95222.53;;;3.69;100.00
43878;BME280;29815;48.184;11.268;2023-03-13T00:04:11;95227.75;;;3.76;100.00
43878;BME280;29815;48.184;11.268;2023-03-13T00:06:41;95222.66;;;3.74;100.00
43878;BME280;29815;48.184;11.268;2023-03-13T00:09:13;95216.66;;;3.67;100.00
43878;BME280;29815;48.184;11.268;2023-03-13T00:11:44;95221.25;;;3.71;100.00
43878;BME280;29815;48.184;11.268;2023-03-13T00:14:15;95207.72;;;3.73;100.00
43878;BME280;29815;48.184;11.268;2023-03-13T00:16:45;95211.19;;;3.73;100.00
43878;BME280;29815;48.184;11.268;2023-03-13T00:19:15;95216.19;;;3.70;100.00
43878;BME280;29815;48.184;11.268;2023-03-13T00:21:44;95216.53;;;3.73;100.00
43878;BME280;29815;48.184;11.268;2023-03-13T00:24:13;95208.19;;;3.70;100.00
43878;BME280;29815;48.184;11.268;2023-03-13T00:26:43;95197.22;;;3.66;100.00
43878;BME280;29815;48.184;11.268;2023-03-13T00:29:13;95204.38;;;3.66;100.00
43878;BME280;29815;48.184;11.268;2023-03-13T00:31:43;95194.19;;;3.63;100.00
43878;BME280;29815;48.184;11.268;2023-03-13T00:34:13;95192.81;;;3.60;100.00
43878;BME280;29815;48.184;11.268;2023-03-13T00:36:42;95188.31;;;3.61;100.00
43878;BME280;29815;48.184;11.268;2023-03-13T00:39:12;95196.19;;;3.56;100.00
43878;BME280;29815;48.184;11.268;2023-03-13T00:41:41;95191.00;;;3.49;100.00
43878;BME280;29815;48.184;11.268;2023-03-13T00:44:11;95187.44;;;3.44;100.00
43878;BME280;29815;48.184;11.268;2023-03-13T00:46:42;95195.28;;;3.38;100.00
43878;BME280;29815;48.184;11.268;2023-03-13T00:49:11;95190.09;;;3.32;100.00
43878;BME280;29815;48.184;11.268;2023-03-13T00:51:41;95185.97;;;3.24;100.00
43878;BME280;29815;48.184;11.268;2023-03-13T00:54:10;95195.22;;;3.22;100.00
43878;BME280;29815;48.184;11.268;2023-03-13T00:56:40;95188.97;;;3.16;100.00
43878;BME280;29815;48.184;11.268;2023-03-13T00:59:09;95185.16;;;3.12;100.00
43878;BME280;29815;48.184;11.268;2023-03-13T01:01:39;95175.78;;;3.10;100.00
43878;BME280;29815;48.184;11.268;2023-03-13T01:04:11;95168.59;;;3.10;100.00
43878;BME280;29815;48.184;11.268;2023-03-13T01:06:41;95165.84;;;3.05;100.00
43878;BME280;29815;48.184;11.268;2023-03-13T01:09:13;95159.47;;;3.06;100.00
43878;BME280;29815;48.184;11.268;2023-03-13T01:11:44;95163.19;;;3.05;100.00
43878;BME280;29815;48.184;11.268;2023-03-13T01:14:17;95159.94;;;3.03;100.00
43878;BME280;29815;48.184;11.268;2023-03-13T01:16:48;95147.13;;;3.00;100.00
43878;BME280;29815;48.184;11.268;2023-03-13T01:19:18;95151.66;;;2.99;100.00
43878;BME280;29815;48.184;11.268;2023-03-13T01:21:48;95154.75;;;2.96;100.00
43878;BME280;29815;48.184;11.268;2023-03-13T01:24:17;95158.69;;;2.94;100.00
43878;BME280;29815;48.184;11.268;2023-03-13T01:26:47;95153.84;;;2.91;100.00
43878;BME280;29815;48.184;11.268;2023-03-13T01:29:16;95157.75;;;2.88;100.00
43878;BME280;29815;48.184;11.268;2023-03-13T01:31:47;95149.09;;;2.81;100.00
43878;BME280;29815;48.184;11.268;2023-03-13T01:34:17;95148.97;;;2.76;100.00
43878;BME280;29815;48.184;11.268;2023-03-13T01:36:47;95151.84;;;2.75;100.00
43878;BME280;29815;48.184;11.268;2023-03-13T01:39:19;95150.94;;;2.69;100.00
43878;BME280;29815;48.184;11.268;2023-03-13T01:41:48;95151.88;;;2.63;100.00
43878;BME280;29815;48.184;11.268;2023-03-13T01:44:23;95144.94;;;2.62;100.00
43878;BME280;29815;48.184;11.268;2023-03-13T01:46:54;95134.53;;;2.60;100.00
43878;BME280;29815;48.184;11.268;2023-03-13T01:49:28;95145.16;;;2.60;100.00
43878;BME280;29815;48.184;11.268;2023-03-13T01:52:12;95143.53;;;2.59;100.00
43878;BME280;29815;48.184;11.268;2023-03-13T01:54:53;95133.50;;;2.61;100.00
43878;BME280;29815;48.184;11.268;2023-03-13T01:57:29;95126.09;;;2.63;100.00
43878;BME280;29815;48.184;11.268;2023-03-13T02:00:04;95124.84;;;2.66;100.00
43878;BME280;29815;48.184;11.268;2023-03-13T02:02:43;95128.88;;;2.68;100.00
43878;BME280;29815;48.184;11.268;2023-03-13T02:05:20;95120.69;;;2.70;100.00
43878;BME280;29815;48.184;11.268;2023-03-13T02:07:55;95126.59;;;2.72;100.00
43878;BME280;29815;48.184;11.268;2023-03-13T02:10:29;95125.53;;;2.73;100.00
43878;BME280;29815;48.184;11.268;2023-03-13T02:13:00;95127.94;;;2.75;100.00
43878;BME280;29815;48.184;11.268;2023-03-13T02:15:31;95120.53;;;2.77;100.00
43878;BME280;29815;48.184;11.268;2023-03-13T02:18:06;95122.97;;;2.78;100.00
43878;BME280;29815;48.184;11.268;2023-03-13T02:20:39;95119.75;;;2.76;100.00
43878;BME280;29815;48.184;11.268;2023-03-13T02:23:17;95121.94;;;2.79;100.00
43878;BME280;29815;48.184;11.268;2023-03-13T02:25:52;95128.06;;;2.80;100.00
43878;BME280;29815;48.184;11.268;2023-03-13T02:28:34;95122.75;;;2.80;100.00
43878;BME280;29815;48.184;11.268;2023-03-13T02:31:10;95134.06;;;2.75;100.00
43878;BME280;29815;48.184;11.268;2023-03-13T02:33:41;95130.84;;;2.73;100.00
43878;BME280;29815;48.184;11.268;2023-03-13T02:36:16;95130.84;;;2.73;100.00
43878;BME280;29815;48.184;11.268;2023-03-13T02:38:50;95129.78;;;2.74;100.00
43878;BME280;29815;48.184;11.268;2023-03-13T02:41:27;95135.91;;;2.75;100.00
43878;BME280;29815;48.184;11.268;2023-03-13T02:43:58;95134.28;;;2.73;100.00
43878;BME280;29815;48.184;11.268;2023-03-13T02:46:28;95131.41;;;2.75;100.00
43878;BME280;29815;48.184;11.268;2023-03-13T02:49:19;95127.47;;;2.78;100.00
43878;BME280;29815;48.184;11.268;2023-03-13T02:51:53;95121.94;;;2.79;100.00
43878;BME280;29815;48.184;11.268;2023-03-13T02:54:31;95128.88;;;2.80;100.00
43878;BME280;29815;48.184;11.268;2023-03-13T02:57:04;95124.38;;;2.81;100.00
43878;BME280;29815;48.184;11.268;2023-03-13T02:59:34;95120.91;;;2.80;100.00
43878;BME280;29815;48.184;11.268;2023-03-13T03:02:03;95126.22;;;2.80;100.00
43878;BME280;29815;48.184;11.268;2023-03-13T03:04:33;95128.63;;;2.82;100.00
43878;BME280;29815;48.184;11.268;2023-03-13T03:07:03;95122.88;;;2.85;100.00
43878;BME280;29815;48.184;11.268;2023-03-13T03:09:33;95126.00;;;2.93;100.00
43878;BME280;29815;48.184;11.268;2023-03-13T03:12:08;95127.13;;;3.09;100.00
43878;BME280;29815;48.184;11.268;2023-03-13T03:14:38;95130.56;;;3.10;100.00
43878;BME280;29815;48.184;11.268;2023-03-13T03:17:08;95119.13;;;3.09;100.00
43878;BME280;29815;48.184;11.268;2023-03-13T03:19:37;95118.56;;;3.07;100.00
43878;BME280;29815;48.184;11.268;2023-03-13T03:22:09;95126.53;;;3.07;100.00
43878;BME280;29815;48.184;11.268;2023-03-13T03:24:39;95120.41;;;3.06;100.00
43878;BME280;29815;48.184;11.268;2023-03-13T03:27:09;95126.88;;;3.11;100.00
43878;BME280;29815;48.184;11.268;2023-03-13T03:29:46;95121.91;;;3.14;100.00
43878;BME280;29815;48.184;11.268;2023-03-13T03:32:16;95122.47;;;3.16;100.00
43878;BME280;29815;48.184;11.268;2023-03-13T03:34:45;95120.06;;;3.15;100.00
43878;BME280;29815;48.184;11.268;2023-03-13T03:37:15;95119.81;;;3.16;100.00
43878;BME280;29815;48.184;11.268;2023-03-13T03:39:44;95113.22;;;3.19;100.00
43878;BME280;29815;48.184;11.268;2023-03-13T03:42:15;95113.22;;;3.19;100.00
43878;BME280;29815;48.184;11.268;2023-03-13T03:44:45;95105.03;;;3.20;100.00
43878;BME280;29815;48.184;11.268;2023-03-13T03:47:15;95106.88;;;3.20;100.00
43878;BME280;29815;48.184;11.268;2023-03-13T03:49:47;95100.50;;;3.21;100.00
43878;BME280;29815;48.184;11.268;2023-03-13T03:52:17;95104.22;;;3.20;100.00
43878;BME280;29815;48.184;11.268;2023-03-13T03:54:46;95097.50;;;3.17;100.00
43878;BME280;29815;48.184;11.268;2023-03-13T03:57:19;95096.13;;;3.15;100.00
43878;BME280;29815;48.184;11.268;2023-03-13T03:59:48;95099.81;;;3.14;100.00
43878;BME280;29815;48.184;11.268;2023-03-13T04:02:18;95083.88;;;3.14;100.00
43878;BME280;29815;48.184;11.268;2023-03-13T04:04:48;95082.84;;;3.15;100.00
43878;BME280;29815;48.184;11.268;2023-03-13T04:07:25;95074.06;;;3.14;100.00
43878;BME280;29815;48.184;11.268;2023-03-13T04:09:54;95072.44;;;3.13;100.00
43878;BME280;29815;48.184;11.268;2023-03-13T04:12:32;95060.75;;;3.14;100.00
43878;BME280;29815;48.184;11.268;2023-03-13T04:15:02;95054.63;;;3.14;100.00
43878;BME280;29815;48.184;11.268;2023-03-13T04:17:32;95050.34;;;3.13;100.00
43878;BME280;29815;48.184;11.268;2023-03-13T04:20:03;95044.47;;;3.11;100.00
43878;BME280;29815;48.184;11.268;2023-03-13T04:22:35;95037.53;;;3.10;100.00
43878;BME280;29815;48.184;11.268;2023-03-13T04:25:06;95034.63;;;3.11;100.00
43878;BME280;29815;48.184;11.268;2023-03-13T04:27:37;95029.78;;;3.08;100.00
43878;BME280;29815;48.184;11.268;2023-03-13T04:30:09;95024.69;;;3.06;100.00
43878;BME280;29815;48.184;11.268;2023-03-13T04:32:58;95026.31;;;3.08;100.00
43878;BME280;29815;48.184;11.268;2023-03-13T04:35:51;95017.78;;;3.05;100.00
43878;BME280;29815;48.184;11.268;2023-03-13T04:38:29;95010.59;;;3.06;100.00
43878;BME280;29815;48.184;11.268;2023-03-13T04:41:24;95006.66;;;3.09;100.00
43878;BME280;29815;48.184;11.268;2023-03-13T04:44:09;94997.97;;;3.13;100.00
43878;BME280;29815;48.184;11.268;2023-03-13T04:46:58;95002.38;;;3.19;100.00
43878;BME280;29815;48.184;11.268;2023-03-13T04:49:48;95000.03;;;3.23;100.00
43878;BME280;29815;48.184;11.268;2023-03-13T04:52:42;94995.94;;;3.32;100.00
43878;BME280;29815;48.184;11.268;2023-03-13T04:55:21;94988.25;;;3.47;100.00
43878;BME280;29815;48.184;11.268;2023-03-13T04:58:11;94997.84;;;3.65;100.00
43878;BME280;29815;48.184;11.268;2023-03-13T05:00:46;94998.19;;;3.68;100.00
43878;BME280;29815;48.184;11.268;2023-03-13T05:03:46;95005.47;;;3.73;100.00
43878;BME280;29815;48.184;11.268;2023-03-13T05:06:38;95001.50;;;3.76;100.00
43878;BME280;29815;48.184;11.268;2023-03-13T05:09:30;94992.41;;;3.71;100.00
43878;BME280;29815;48.184;11.268;2023-03-13T05:12:19;94997.16;;;3.69;100.00
43878;BME280;29815;48.184;11.268;2023-03-13T05:15:04;94994.09;;;3.78;100.00
43878;BME280;29815;48.184;11.268;2023-03-13T05:17:48;94980.88;;;3.83;100.00
43878;BME280;29815;48.184;11.268;2023-03-13T05:20:30;94999.00;;;3.86;100.00
43878;BME280;29815;48.184;11.268;2023-03-13T05:23:33;94969.97;;;3.84;100.00
43878;BME280;29815;48.184;11.268;2023-03-13T05:26:22;94983.59;;;3.88;100.00
43878;BME280;29815;48.184;11.268;2023-03-13T05:29:12;94977.78;;;3.91;100.00
43878;BME280;29815;48.184;11.268;2023-03-13T05:31:57;94970.94;;;3.95;100.00
43878;BME280;29815;48.184;11.268;2023-03-13T05:34:40;94962.47;;;3.98;100.00
43878;BME280;29815;48.184;11.268;2023-03-13T05:37:33;94962.56;;;4.03;100.00
43878;BME280;29815;48.184;11.268;2023-03-13T05:40:40;94959.97;;;4.08;100.00
43878;BME280;29815;48.184;11.268;2023-03-13T05:43:38;94954.94;;;4.12;100.00
43878;BME280;29815;48.184;11.268;2023-03-13T05:46:31;94950.75;;;4.16;100.00
43878;BME280;29815;48.184;11.268;2023-03-13T05:49:19;94947.03;;;4.17;100.00
43878;BME280;29815;48.184;11.268;2023-03-13T05:52:03;94936.94;;;4.19;100.00
43878;BME280;29815;48.184;11.268;2023-03-13T05:55:08;94941.28;;;4.25;100.00
43878;BME280;29815;48.184;11.268;2023-03-13T05:57:57;94932.56;;;4.29;100.00
43878;BME280;29815;48.184;11.268;2023-03-13T06:00:46;94936.59;;;4.32;100.00
43878;BME280;29815;48.184;11.268;2023-03-13T06:03:34;94935.34;;;4.39;100.00
43878;BME280;29815;48.184;11.268;2023-03-13T06:06:05;94926.47;;;4.51;100.00
43878;BME280;29815;48.184;11.268;2023-03-13T06:08:42;94919.09;;;4.58;100.00
43878;BME280;29815;48.184;11.268;2023-03-13T06:11:12;94913.94;;;4.73;100.00
43878;BME280;29815;48.184;11.268;2023-03-13T06:13:42;94913.56;;;4.86;100.00
43878;BME280;29815;48.184;11.268;2023-03-13T06:16:44;94913.91;;;4.95;100.00
43878;BME280;29815;48.184;11.268;2023-03-13T06:19:20;94917.00;;;5.08;100.00
43878;BME280;29815;48.184;11.268;2023-03-13T06:21:51;94910.69;;;5.15;100.00
43878;BME280;29815;48.184;11.268;2023-03-13T06:24:22;94910.25;;;5.28;100.00
43878;BME280;29815;48.184;11.268;2023-03-13T06:26:54;94910.38;;;5.38;100.00
43878;BME280;29815;48.184;11.268;2023-03-13T06:29:29;94911.69;;;5.67;100.00
43878;BME280;29815;48.184;11.268;2023-03-13T06:32:01;94913.47;;;5.89;100.00
43878;BME280;29815;48.184;11.268;2023-03-13T06:34:33;94915.44;;;5.98;100.00
43878;BME280;29815;48.184;11.268;2023-03-13T06:37:03;94923.75;;;6.07;100.00
43878;BME280;29815;48.184;11.268;2023-03-13T06:39:35;94917.69;;;6.17;100.00
43878;BME280;29815;48.184;11.268;2023-03-13T06:42:06;94914.72;;;6.13;100.00
43878;BME280;29815;48.184;11.268;2023-03-13T06:44:35;94919.78;;;6.09;100.00
43878;BME280;29815;48.184;11.268;2023-03-13T06:47:05;94926.44;;;6.07;100.00
43878;BME280;29815;48.184;11.268;2023-03-13T06:49:35;94917.09;;;6.09;100.00
43878;BME280;29815;48.184;11.268;2023-03-13T06:52:05;94922.47;;;6.15;100.00
43878;BME280;29815;48.184;11.268;2023-03-13T06:54:36;94927.56;;;6.16;100.00
43878;BME280;29815;48.184;11.268;2023-03-13T06:57:05;94927.81;;;6.15;100.00
43878;BME280;29815;48.184;11.268;2023-03-13T06:59:35;94918.19;;;6.14;100.00
43878;BME280;29815;48.184;11.268;2023-03-13T07:02:05;94908.56;;;6.13;100.00
43878;BME280;29815;48.184;11.268;2023-03-13T07:04:34;94904.06;;;6.18;100.00
43878;BME280;29815;48.184;11.268;2023-03-13T07:07:04;94899.06;;;6.27;100.00
43878;BME280;29815;48.184;11.268;2023-03-13T07:09:35;94892.69;;;6.38;100.00
43878;BME280;29815;48.184;11.268;2023-03-13T07:12:06;94894.38;;;6.54;100.00
43878;BME280;29815;48.184;11.268;2023-03-13T07:14:35;94892.88;;;6.78;100.00
43878;BME280;29815;48.184;11.268;2023-03-13T07:17:05;94884.13;;;7.03;100.00
43878;BME280;29815;48.184;11.268;2023-03-13T07:19:34;94883.88;;;7.20;100.00
43878;BME280;29815;48.184;11.268;2023-03-13T07:22:04;94882.56;;;7.23;100.00
43878;BME280;29815;48.184;11.268;2023-03-13T07:24:34;94885.81;;;7.35;100.00
43878;BME280;29815;48.184;11.268;2023-03-13T07:27:04;94889.28;;;7.35;100.00
43878;BME280;29815;48.184;11.268;2023-03-13T07:29:35;94879.63;;;7.44;100.00
43878;BME280;29815;48.184;11.268;2023-03-13T07:32:05;94882.31;;;7.50;100.00
43878;BME280;29815;48.184;11.268;2023-03-13T07:34:35;94881.78;;;7.53;100.00
43878;BME280;29815;48.184;11.268;2023-03-13T07:37:05;94884.72;;;7.66;100.00
43878;BME280;29815;48.184;11.268;2023-03-13T07:39:36;94884.47;;;7.68;100.00
43878;BME280;29815;48.184;11.268;2023-03-13T07:42:06;94893.06;;;7.80;100.00
43878;BME280;29815;48.184;11.268;2023-03-13T07:44:35;94894.09;;;7.94;100.00
43878;BME280;29815;48.184;11.268;2023-03-13T07:47:05;94894.38;;;8.03;100.00
43878;BME280;29815;48.184;11.268;2023-03-13T07:49:35;94898.94;;;8.12;100.00
43878;BME280;29815;48.184;11.268;2023-03-13T07:52:08;94895.69;;;8.26;100.00
43878;BME280;29815;48.184;11.268;2023-03-13T07:54:39;94897.56;;;8.40;100.00
43878;BME280;29815;48.184;11.268;2023-03-13T07:57:08;94880.09;;;8.48;100.00
43878;BME280;29815;48.184;11.268;2023-03-13T07:59:38;94868.81;;;8.51;100.00
43878;BME280;29815;48.184;11.268;2023-03-13T08:02:10;94869.38;;;8.48;100.00
43878;BME280;29815;48.184;11.268;2023-03-13T08:04:40;94873.38;;;8.51;100.00
43878;BME280;29815;48.184;11.268;2023-03-13T08:07:11;94880.59;;;8.70;100.00
43878;BME280;29815;48.184;11.268;2023-03-13T08:09:42;94882.44;;;8.75;100.00
43878;BME280;29815;48.184;11.268;2023-03-13T08:12:11;94888.56;;;8.80;100.00
43878;BME280;29815;48.184;11.268;2023-03-13T08:14:40;94895.88;;;8.70;100.00
43878;BME280;29815;48.184;11.268;2023-03-13T08:17:10;94890.50;;;8.75;100.00
43878;BME280;29815;48.184;11.268;2023-03-13T08:19:39;94889.69;;;8.74;100.00
43878;BME280;29815;48.184;11.268;2023-03-13T08:22:09;94881.28;;;8.91;100.00
43878;BME280;29815;48.184;11.268;2023-03-13T08:24:38;94889.81;;;9.03;100.00
43878;BME280;29815;48.184;11.268;2023-03-13T08:27:09;94877.94;;;9.14;100.00
43878;BME280;29815;48.184;11.268;2023-03-13T08:29:38;94892.06;;;9.35;100.00
43878;BME280;29815;48.184;11.268;2023-03-13T08:32:08;94889.53;;;9.54;100.00
43878;BME280;29815;48.184;11.268;2023-03-13T08:34:38;94884.28;;;9.73;100.00
43878;BME280;29815;48.184;11.268;2023-03-13T08:37:07;94891.34;;;9.98;100.00
43878;BME280;29815;48.184;11.268;2023-03-13T08:39:37;94896.88;;;10.11;100.00
43878;BME280;29815;48.184;11.268;2023-03-13T08:42:10;94891.72;;;10.20;100.00
43878;BME280;29815;48.184;11.268;2023-03-13T08:44:41;94882.47;;;10.31;100.00
43878;BME280;29815;48.184;11.268;2023-03-13T08:47:10;94883.75;;;10.39;100.00
43878;BME280;29815;48.184;11.268;2023-03-13T08:49:40;94871.16;;;10.58;100.00
43878;BME280;29815;48.184;11.268;2023-03-13T08:52:09;94872.28;;;10.76;100.00
43878;BME280;29815;48.184;11.268;2023-03-13T08:54:39;94866.22;;;10.89;100.00
43878;BME280;29815;48.184;11.268;2023-03-13T08:57:10;94861.50;;;11.00;100.00
43878;BME280;29815;48.184;11.268;2023-03-13T08:59:39;94864.88;;;11.10;100.00
43878;BME280;29815;48.184;11.268;2023-03-13T09:02:09;94861.44;;;11.24;100.00
43878;BME280;29815;48.184;11.268;2023-03-13T09:04:39;94865.38;;;11.31;100.00
43878;BME280;29815;48.184;11.268;2023-03-13T09:07:08;94863.66;;;11.40;100.00
43878;BME280;29815;48.184;11.268;2023-03-13T09:09:37;94860.78;;;11.50;100.00
43878;BME280;29815;48.184;11.268;2023-03-13T09:12:09;94860.06;;;11.64;100.00
43878;BME280;29815;48.184;11.268;2023-03-13T09:14:56;94858.16;;;11.83;100.00
43878;BME280;29815;48.184;11.268;2023-03-13T09:17:26;94854.72;;;11.96;100.00
43878;BME280;29815;48.184;11.268;2023-03-13T09:19:55;94843.16;;;12.09;100.00
43878;BME280;29815;48.184;11.268;2023-03-13T09:22:28;94847.78;;;12.23;100.00
43878;BME280;29815;48.184;11.268;2023-03-13T09:24:57;94840.72;;;12.27;100.00
43878;BME280;29815;48.184;11.268;2023-03-13T09:27:28;94828.72;;;12.33;100.00
43878;BME280;29815;48.184;11.268;2023-03-13T09:29:57;94828.91;;;12.36;98.86
43878;BME280;29815;48.184;11.268;2023-03-13T09:32:27;94824.53;;;12.54;100.00
43878;BME280;29815;48.184;11.268;2023-03-13T09:34:56;94819.84;;;12.73;100.00
43878;BME280;29815;48.184;11.268;2023-03-13T09:37:26;94821.50;;;12.97;89.37
43878;BME280;29815;48.184;11.268;2023-03-13T09:39:55;94829.69;;;13.19;99.85
43878;BME280;29815;48.184;11.268;2023-03-13T09:42:36;94815.81;;;13.48;86.73
43878;BME280;29815;48.184;11.268;2023-03-13T09:45:14;94814.88;;;13.66;96.59
43878;BME280;29815;48.184;11.268;2023-03-13T09:47:49;94816.75;;;13.88;93.03
43878;BME280;29815;48.184;11.268;2023-03-13T09:50:25;94812.13;;;14.11;87.62
43878;BME280;29815;48.184;11.268;2023-03-13T09:53:03;94800.28;;;14.29;84.81
43878;BME280;29815;48.184;11.268;2023-03-13T09:55:40;94796.72;;;14.51;85.49
43878;BME280;29815;48.184;11.268;2023-03-13T09:58:18;94789.78;;;14.67;89.58
43878;BME280;29815;48.184;11.268;2023-03-13T10:00:53;94783.16;;;14.90;87.54
43878;BME280;29815;48.184;11.268;2023-03-13T10:03:28;94781.75;;;15.02;85.89
43878;BME280;29815;48.184;11.268;2023-03-13T10:06:05;94774.91;;;15.04;80.00
43878;BME280;29815;48.184;11.268;2023-03-13T10:08:41;94774.75;;;15.01;81.94
43878;BME280;29815;48.184;11.268;2023-03-13T10:11:16;94768.19;;;14.93;78.73
43878;BME280;29815;48.184;11.268;2023-03-13T10:14:01;94782.38;;;14.99;87.27
43878;BME280;29815;48.184;11.268;2023-03-13T10:16:39;94775.22;;;15.03;84.47
43878;BME280;29815;48.184;11.268;2023-03-13T10:19:14;94777.47;;;15.18;77.90
43878;BME280;29815;48.184;11.268;2023-03-13T10:21:50;94769.19;;;15.32;82.18
43878;BME280;29815;48.184;11.268;2023-03-13T10:24:31;94780.97;;;15.36;79.51
43878;BME280;29815;48.184;11.268;2023-03-13T10:27:02;94784.50;;;15.36;79.32
43878;BME280;29815;48.184;11.268;2023-03-13T10:29:33;94783.69;;;15.27;80.36
43878;BME280;29815;48.184;11.268;2023-03-13T10:32:05;94771.56;;;15.16;80.77
43878;BME280;29815;48.184;11.268;2023-03-13T10:34:52;94774.91;;;15.13;79.72
43878;BME280;29815;48.184;11.268;2023-03-13T10:37:26;94762.28;;;15.08;83.53
43878;BME280;29815;48.184;11.268;2023-03-13T10:40:12;94754.16;;;15.08;82.03
43878;BME280;29815;48.184;11.268;2023-03-13T10:42:44;94756.09;;;15.16;80.88
43878;BME280;29815;48.184;11.268;2023-03-13T10:45:17;94750.84;;;15.29;87.17
43878;BME280;29815;48.184;11.268;2023-03-13T10:47:58;94759.63;;;15.43;83.25
43878;BME280;29815;48.184;11.268;2023-03-13T10:50:33;94766.00;;;15.38;78.08
43878;BME280;29815;48.184;11.268;2023-03-13T10:53:20;94748.13;;;15.46;77.81
43878;BME280;29815;48.184;11.268;2023-03-13T10:55:54;94751.16;;;15.53;79.13
43878;BME280;29815;48.184;11.268;2023-03-13T10:58:33;94754.69;;;15.53;80.18
43878;BME280;29815;48.184;11.268;2023-03-13T11:01:22;94763.44;;;15.50;80.14
43878;BME280;29815;48.184;11.268;2023-03-13T11:03:54;94751.16;;;15.53;80.28
43878;BME280;29815;48.184;11.268;2023-03-13T11:06:29;94753.09;;;15.52;81.02
43878;BME280;29815;48.184;11.268;2023-03-13T11:09:09;94770.16;;;15.62;77.81
43878;BME280;29815;48.184;11.268;2023-03-13T11:11:46;94748.13;;;15.72;84.01
43878;BME280;29815;48.184;11.268;2023-03-13T11:14:20;94744.09;;;15.95;80.88
43878;BME280;29815;48.184;11.268;2023-03-13T11:16:55;94749.16;;;16.14;76.95
43878;BME280;29815;48.184;11.268;2023-03-13T11:19:42;94738.44;;;16.17;76.43
43878;BME280;29815;48.184;11.268;2023-03-13T11:22:36;94738.88;;;16.28;73.59
43878;BME280;29815;48.184;11.268;2023-03-13T11:25:24;94728.31;;;16.35;75.59
43878;BME280;29815;48.184;11.268;2023-03-13T11:28:14;94721.91;;;16.40;73.96
43878;BME280;29815;48.184;11.268;2023-03-13T11:31:01;94722.66;;;16.49;74.75
43878;BME280;29815;48.184;11.268;2023-03-13T11:33:47;94720.81;;;16.41;71.55
43878;BME280;29815;48.184;11.268;2023-03-13T11:36:22;94723.16;;;16.42;74.66
43878;BME280;29815;48.184;11.268;2023-03-13T11:39:11;94715.81;;;16.43;72.48
43878;BME280;29815;48.184;11.268;2023-03-13T11:41:59;94713.19;;;16.64;73.83
43878;BME280;29815;48.184;11.268;2023-03-13T11:44:32;94707.56;;;16.69;73.03
43878;BME280;29815;48.184;11.268;2023-03-13T11:47:33;94705.72;;;16.81;72.47
43878;BME280;29815;48.184;11.268;2023-03-13T11:50:20;94689.84;;;16.92;72.98
43878;BME280;29815;48.184;11.268;2023-03-13T11:53:21;94684.47;;;16.83;70.81
43878;BME280;29815;48.184;11.268;2023-03-13T11:56:06;94680.34;;;16.77;71.02
43878;BME280;29815;48.184;11.268;2023-03-13T11:59:05;94683.94;;;16.90;71.06
43878;BME280;29815;48.184;11.268;2023-03-13T12:01:48;94677.44;;;17.03;71.53
43878;BME280;29815;48.184;11.268;2023-03-13T12:04:27;94674.66;;;16.91;71.19
43878;BME280;29815;48.184;11.268;2023-03-13T12:07:04;94671.16;;;16.90;70.10
43878;BME280;29815;48.184;11.268;2023-03-13T12:09:50;94667.63;;;16.90;71.15
43878;BME280;29815;48.184;11.268;2023-03-13T12:12:35;94656.63;;;16.86;69.91
43878;BME280;29815;48.184;11.268;2023-03-13T12:15:19;94656.50;;;16.83;70.76
43878;BME280;29815;48.184;11.268;2023-03-13T12:17:55;94659.94;;;16.92;69.77
43878;BME280;29815;48.184;11.268;2023-03-13T12:20:33;94656.03;;;17.02;70.41
43878;BME280;29815;48.184;11.268;2023-03-13T12:23:17;94643.28;;;17.14;69.39
43878;BME280;29815;48.184;11.268;2023-03-13T12:25:53;94627.31;;;17.13;69.38
43878;BME280;29815;48.184;11.268;2023-03-13T12:28:33;94628.09;;;17.13;70.87
43878;BME280;29815;48.184;11.268;2023-03-13T12:31:18;94627.91;;;17.18;71.07
43878;BME280;29815;48.184;11.268;2023-03-13T12:33:57;94623.09;;;17.36;71.68
43878;BME280;29815;48.184;11.268;2023-03-13T12:36:32;94622.44;;;17.72;71.10
43878;BME280;29815;48.184;11.268;2023-03-13T12:39:19;94602.94;;;17.95;70.73
43878;BME280;29815;48.184;11.268;2023-03-13T12:42:10;94601.59;;;18.13;67.83
43878;BME280;29815;48.184;11.268;2023-03-13T12:44:45;94590.69;;;18.37;69.26
43878;BME280;29815;48.184;11.268;2023-03-13T12:47:20;94588.06;;;18.53;69.10
43878;BME280;29815;48.184;11.268;2023-03-13T12:50:19;94583.16;;;18.58;67.67
43878;BME280;29815;48.184;11.268;2023-03-13T12:53:19;94575.00;;;18.46;67.61
43878;BME280;29815;48.184;11.268;2023-03-13T12:56:17;94571.38;;;18.54;67.41
43878;BME280;29815;48.184;11.268;2023-03-13T12:58:58;94575.56;;;18.64;67.28
43878;BME280;29815;48.184;11.268;2023-03-13T13:01:34;94565.81;;;18.91;69.12
43878;BME280;29815;48.184;11.268;2023-03-13T13:04:10;94563.97;;;19.07;67.30
43878;BME280;29815;48.184;11.268;2023-03-13T13:06:56;94561.97;;;19.20;66.43
43878;BME280;29815;48.184;11.268;2023-03-13T13:09:30;94551.81;;;19.05;63.71
43878;BME280;29815;48.184;11.268;2023-03-13T13:12:09;94560.81;;;18.93;66.15
43878;BME280;29815;48.184;11.268;2023-03-13T13:15:15;94555.09;;;18.70;65.64
43878;BME280;29815;48.184;11.268;2023-03-13T13:18:02;94556.03;;;18.50;64.98
43878;BME280;29815;48.184;11.268;2023-03-13T13:20:45;94549.34;;;18.47;64.34
43878;BME280;29815;48.184;11.268;2023-03-13T13:23:29;94538.56;;;18.39;64.95
43878;BME280;29815;48.184;11.268;2023-03-13T13:26:47;94540.16;;;18.52;65.47
43878;BME280;29815;48.184;11.268;2023-03-13T13:29:56;94537.97;;;18.70;65.38
43878;BME280;29815;48.184;11.268;2023-03-13T13:32:47;94520.78;;;19.09;66.86
43878;BME280;29815;48.184;11.268;2023-03-13T13:35:28;94513.94;;;19.47;63.44
43878;BME280;29815;48.184;11.268;2023-03-13T13:38:27;94514.78;;;19.79;64.02